sensor_id;sensor_type;location;lat;lon;timestamp;P1;durP1;ratioP1;P2;durP2;ratioP2
7432;SDS011;32233;49.500;7.764;2024-01-15T00:01:47;67.17;;;22.63;;
7432;SDS011;32233;49.500;7.764;2024-01-15T00:04:14;62.77;;;20.97;;
7432;SDS011;32233;49.500;7.764;2024-01-15T00:06:41;64.20;;;20.67;;
7432;SDS011;32233;49.500;7.764;2024-01-15T00:09:07;63.67;;;20.37;;
7432;SDS011;32233;49.500;7.764;2024-01-15T00:11:34;67.30;;;21.77;;
7432;SDS011;32233;49.500;7.764;2024-01-15T00:14:01;63.17;;;19.03;;
7432;SDS011;32233;49.500;7.764;2024-01-15T00:16:27;65.10;;;20.43;;
7432;SDS011;32233;49.500;7.764;2024-01-15T00:18:54;67.77;;;22.20;;
7432;SDS011;32233;49.500;7.764;2024-01-15T00:21:20;61.03;;;20.50;;
7432;SDS011;32233;49.500;7.764;2024-01-15T00:23:47;60.67;;;21.37;;
7432;SDS011;32233;49.500;7.764;2024-01-15T00:26:13;65.80;;;22.20;;
7432;SDS011;32233;49.500;7.764;2024-01-15T00:28:40;57.77;;;20.17;;
7432;SDS011;32233;49.500;7.764;2024-01-15T00:31:07;64.87;;;21.00;;
7432;SDS011;32233;49.500;7.764;2024-01-15T00:33:33;60.87;;;20.70;;
7432;SDS011;32233;49.500;7.764;2024-01-15T00:36:00;65.00;;;21.33;;
7432;SDS011;32233;49.500;7.764;2024-01-15T00:38:27;63.77;;;20.57;;
7432;SDS011;32233;49.500;7.764;2024-01-15T00:40:54;56.80;;;19.67;;
7432;SDS011;32233;49.500;7.764;2024-01-15T00:43:20;61.47;;;20.47;;
7432;SDS011;32233;49.500;7.764;2024-01-15T00:45:47;61.27;;;20.03;;
7432;SDS011;32233;49.500;7.764;2024-01-15T00:48:14;64.03;;;20.90;;
7432;SDS011;32233;49.500;7.764;2024-01-15T00:50:40;63.13;;;20.47;;
7432;SDS011;32233;49.500;7.764;2024-01-15T00:53:07;66.30;;;20.73;;
7432;SDS011;32233;49.500;7.764;2024-01-15T00:55:33;70.70;;;20.37;;
7432;SDS011;32233;49.500;7.764;2024-01-15T00:58:00;59.43;;;20.43;;
7432;SDS011;32233;49.500;7.764;2024-01-15T01:00:26;55.73;;;19.63;;
7432;SDS011;32233;49.500;7.764;2024-01-15T01:02:53;56.40;;;19.07;;
7432;SDS011;32233;49.500;7.764;2024-01-15T01:05:20;59.67;;;18.60;;
7432;SDS011;32233;49.500;7.764;2024-01-15T01:07:46;62.77;;;20.47;;
7432;SDS011;32233;49.500;7.764;2024-01-15T01:10:13;56.53;;;18.63;;
7432;SDS011;32233;49.500;7.764;2024-01-15T01:12:39;60.33;;;19.37;;
7432;SDS011;32233;49.500;7.764;2024-01-15T01:15:06;54.07;;;19.37;;
7432;SDS011;32233;49.500;7.764;2024-01-15T01:17:33;52.87;;;18.87;;
7432;SDS011;32233;49.500;7.764;2024-01-15T01:19:59;55.60;;;17.83;;
7432;SDS011;32233;49.500;7.764;2024-01-15T01:22:26;51.83;;;18.43;;
7432;SDS011;32233;49.500;7.764;2024-01-15T01:24:53;53.97;;;18.07;;
7432;SDS011;32233;49.500;7.764;2024-01-15T01:27:19;52.87;;;18.03;;
7432;SDS011;32233;49.500;7.764;2024-01-15T01:29:46;56.73;;;18.27;;
7432;SDS011;32233;49.500;7.764;2024-01-15T01:32:13;56.90;;;17.53;;
7432;SDS011;32233;49.500;7.764;2024-01-15T01:34:39;54.90;;;17.73;;
7432;SDS011;32233;49.500;7.764;2024-01-15T01:37:09;53.10;;;18.57;;
7432;SDS011;32233;49.500;7.764;2024-01-15T01:39:36;52.87;;;18.33;;
7432;SDS011;32233;49.500;7.764;2024-01-15T01:42:03;59.83;;;18.10;;
7432;SDS011;32233;49.500;7.764;2024-01-15T01:44:30;56.83;;;18.33;;
7432;SDS011;32233;49.500;7.764;2024-01-15T01:46:56;58.17;;;17.30;;
7432;SDS011;32233;49.500;7.764;2024-01-15T01:49:25;57.20;;;18.40;;
7432;SDS011;32233;49.500;7.764;2024-01-15T01:51:52;54.33;;;17.70;;
7432;SDS011;32233;49.500;7.764;2024-01-15T01:54:19;53.63;;;18.53;;
7432;SDS011;32233;49.500;7.764;2024-01-15T01:56:47;50.50;;;17.13;;
7432;SDS011;32233;49.500;7.764;2024-01-15T01:59:15;57.10;;;17.10;;
7432;SDS011;32233;49.500;7.764;2024-01-15T02:01:41;51.87;;;16.97;;
7432;SDS011;32233;49.500;7.764;2024-01-15T02:04:13;50.50;;;16.37;;
7432;SDS011;32233;49.500;7.764;2024-01-15T02:06:46;57.40;;;19.10;;
7432;SDS011;32233;49.500;7.764;2024-01-15T02:09:13;54.77;;;19.17;;
7432;SDS011;32233;49.500;7.764;2024-01-15T02:11:41;56.63;;;17.97;;
7432;SDS011;32233;49.500;7.764;2024-01-15T02:14:08;53.97;;;17.30;;
7432;SDS011;32233;49.500;7.764;2024-01-15T02:16:36;51.47;;;18.27;;
7432;SDS011;32233;49.500;7.764;2024-01-15T02:19:02;50.47;;;17.70;;
7432;SDS011;32233;49.500;7.764;2024-01-15T02:21:29;61.80;;;19.17;;
7432;SDS011;32233;49.500;7.764;2024-01-15T02:23:57;51.63;;;17.77;;
7432;SDS011;32233;49.500;7.764;2024-01-15T02:26:24;55.93;;;18.00;;
7432;SDS011;32233;49.500;7.764;2024-01-15T02:28:51;54.90;;;16.97;;
7432;SDS011;32233;49.500;7.764;2024-01-15T02:31:18;51.37;;;16.90;;
7432;SDS011;32233;49.500;7.764;2024-01-15T02:33:44;47.73;;;17.50;;
7432;SDS011;32233;49.500;7.764;2024-01-15T02:36:12;58.80;;;18.17;;
7432;SDS011;32233;49.500;7.764;2024-01-15T02:38:39;52.47;;;17.30;;
7432;SDS011;32233;49.500;7.764;2024-01-15T02:41:07;56.23;;;16.83;;
7432;SDS011;32233;49.500;7.764;2024-01-15T02:43:34;56.10;;;17.90;;
7432;SDS011;32233;49.500;7.764;2024-01-15T02:46:00;54.63;;;17.50;;
7432;SDS011;32233;49.500;7.764;2024-01-15T02:48:27;56.10;;;17.70;;
7432;SDS011;32233;49.500;7.764;2024-01-15T02:50:53;52.03;;;17.00;;
7432;SDS011;32233;49.500;7.764;2024-01-15T02:53:20;46.07;;;16.67;;
7432;SDS011;32233;49.500;7.764;2024-01-15T02:55:47;53.20;;;16.30;;
7432;SDS011;32233;49.500;7.764;2024-01-15T02:58:14;52.93;;;17.07;;
7432;SDS011;32233;49.500;7.764;2024-01-15T03:00:40;54.10;;;16.47;;
7432;SDS011;32233;49.500;7.764;2024-01-15T03:03:07;47.17;;;17.03;;
7432;SDS011;32233;49.500;7.764;2024-01-15T03:05:34;51.17;;;15.80;;
7432;SDS011;32233;49.500;7.764;2024-01-15T03:08:01;51.73;;;17.60;;
7432;SDS011;32233;49.500;7.764;2024-01-15T03:10:27;45.60;;;15.83;;
7432;SDS011;32233;49.500;7.764;2024-01-15T03:12:54;53.60;;;16.83;;
7432;SDS011;32233;49.500;7.764;2024-01-15T03:15:20;50.10;;;17.00;;
7432;SDS011;32233;49.500;7.764;2024-01-15T03:17:47;49.97;;;16.97;;
7432;SDS011;32233;49.500;7.764;2024-01-15T03:20:13;54.40;;;17.07;;
7432;SDS011;32233;49.500;7.764;2024-01-15T03:22:40;51.17;;;17.07;;
7432;SDS011;32233;49.500;7.764;2024-01-15T03:25:07;53.73;;;17.43;;
7432;SDS011;32233;49.500;7.764;2024-01-15T03:27:33;51.73;;;17.23;;
7432;SDS011;32233;49.500;7.764;2024-01-15T03:30:00;63.50;;;19.43;;
7432;SDS011;32233;49.500;7.764;2024-01-15T03:32:28;50.57;;;17.97;;
7432;SDS011;32233;49.500;7.764;2024-01-15T03:34:55;55.97;;;18.27;;
7432;SDS011;32233;49.500;7.764;2024-01-15T03:37:21;45.97;;;17.13;;
7432;SDS011;32233;49.500;7.764;2024-01-15T03:39:48;59.47;;;18.10;;
7432;SDS011;32233;49.500;7.764;2024-01-15T03:42:15;58.53;;;18.40;;
7432;SDS011;32233;49.500;7.764;2024-01-15T03:44:42;55.73;;;18.50;;
7432;SDS011;32233;49.500;7.764;2024-01-15T03:47:08;55.00;;;18.17;;
7432;SDS011;32233;49.500;7.764;2024-01-15T03:49:35;48.93;;;17.30;;
7432;SDS011;32233;49.500;7.764;2024-01-15T03:52:02;53.37;;;18.57;;
7432;SDS011;32233;49.500;7.764;2024-01-15T03:54:29;48.23;;;16.93;;
7432;SDS011;32233;49.500;7.764;2024-01-15T03:56:55;48.23;;;16.10;;
7432;SDS011;32233;49.500;7.764;2024-01-15T03:59:22;55.50;;;18.00;;
7432;SDS011;32233;49.500;7.764;2024-01-15T04:01:49;52.03;;;17.23;;
7432;SDS011;32233;49.500;7.764;2024-01-15T04:04:18;47.80;;;17.37;;
7432;SDS011;32233;49.500;7.764;2024-01-15T04:06:45;51.50;;;18.53;;
7432;SDS011;32233;49.500;7.764;2024-01-15T04:09:13;48.10;;;15.70;;
7432;SDS011;32233;49.500;7.764;2024-01-15T04:11:40;47.70;;;17.63;;
7432;SDS011;32233;49.500;7.764;2024-01-15T04:14:06;44.20;;;16.20;;
7432;SDS011;32233;49.500;7.764;2024-01-15T04:16:33;49.70;;;15.87;;
7432;SDS011;32233;49.500;7.764;2024-01-15T04:18:59;44.80;;;16.20;;
7432;SDS011;32233;49.500;7.764;2024-01-15T04:21:26;48.53;;;15.77;;
7432;SDS011;32233;49.500;7.764;2024-01-15T04:23:53;44.57;;;16.07;;
7432;SDS011;32233;49.500;7.764;2024-01-15T04:26:19;40.83;;;14.77;;
7432;SDS011;32233;49.500;7.764;2024-01-15T04:28:46;45.27;;;15.60;;
7432;SDS011;32233;49.500;7.764;2024-01-15T04:31:20;41.33;;;15.23;;
7432;SDS011;32233;49.500;7.764;2024-01-15T04:33:50;42.13;;;14.97;;
7432;SDS011;32233;49.500;7.764;2024-01-15T04:36:17;48.03;;;16.30;;
7432;SDS011;32233;49.500;7.764;2024-01-15T04:38:44;45.33;;;15.30;;
7432;SDS011;32233;49.500;7.764;2024-01-15T04:41:12;44.43;;;15.70;;
7432;SDS011;32233;49.500;7.764;2024-01-15T04:43:39;44.43;;;16.03;;
7432;SDS011;32233;49.500;7.764;2024-01-15T04:46:06;35.83;;;16.33;;
7432;SDS011;32233;49.500;7.764;2024-01-15T04:48:33;46.40;;;15.90;;
7432;SDS011;32233;49.500;7.764;2024-01-15T04:51:00;45.77;;;15.60;;
7432;SDS011;32233;49.500;7.764;2024-01-15T04:53:27;46.00;;;16.30;;
7432;SDS011;32233;49.500;7.764;2024-01-15T04:55:53;43.00;;;15.70;;
7432;SDS011;32233;49.500;7.764;2024-01-15T04:58:20;44.47;;;15.43;;
7432;SDS011;32233;49.500;7.764;2024-01-15T05:00:47;52.80;;;16.57;;
7432;SDS011;32233;49.500;7.764;2024-01-15T05:03:13;47.50;;;17.17;;
7432;SDS011;32233;49.500;7.764;2024-01-15T05:05:40;47.87;;;17.43;;
7432;SDS011;32233;49.500;7.764;2024-01-15T05:08:06;47.30;;;17.00;;
7432;SDS011;32233;49.500;7.764;2024-01-15T05:10:33;53.63;;;18.10;;
7432;SDS011;32233;49.500;7.764;2024-01-15T05:12:59;55.13;;;18.17;;
7432;SDS011;32233;49.500;7.764;2024-01-15T05:15:26;52.20;;;19.10;;
7432;SDS011;32233;49.500;7.764;2024-01-15T05:17:53;48.33;;;17.50;;
7432;SDS011;32233;49.500;7.764;2024-01-15T05:20:19;44.30;;;16.47;;
7432;SDS011;32233;49.500;7.764;2024-01-15T05:22:46;53.43;;;18.97;;
7432;SDS011;32233;49.500;7.764;2024-01-15T05:25:13;46.77;;;18.30;;
7432;SDS011;32233;49.500;7.764;2024-01-15T05:27:39;47.93;;;17.47;;
7432;SDS011;32233;49.500;7.764;2024-01-15T05:30:06;49.43;;;18.53;;
7432;SDS011;32233;49.500;7.764;2024-01-15T05:32:33;50.13;;;18.30;;
7432;SDS011;32233;49.500;7.764;2024-01-15T05:34:59;50.00;;;17.93;;
7432;SDS011;32233;49.500;7.764;2024-01-15T05:37:26;49.23;;;18.27;;
7432;SDS011;32233;49.500;7.764;2024-01-15T05:39:53;52.47;;;19.60;;
7432;SDS011;32233;49.500;7.764;2024-01-15T05:42:19;50.17;;;19.10;;
7432;SDS011;32233;49.500;7.764;2024-01-15T05:44:46;47.57;;;18.93;;
7432;SDS011;32233;49.500;7.764;2024-01-15T05:47:12;56.57;;;18.50;;
7432;SDS011;32233;49.500;7.764;2024-01-15T05:49:39;54.40;;;18.37;;
7432;SDS011;32233;49.500;7.764;2024-01-15T05:52:06;52.17;;;18.23;;
7432;SDS011;32233;49.500;7.764;2024-01-15T05:54:32;57.93;;;20.07;;
7432;SDS011;32233;49.500;7.764;2024-01-15T05:56:59;55.33;;;19.17;;
7432;SDS011;32233;49.500;7.764;2024-01-15T05:59:25;54.13;;;19.30;;
7432;SDS011;32233;49.500;7.764;2024-01-15T06:01:52;50.60;;;18.83;;
7432;SDS011;32233;49.500;7.764;2024-01-15T06:04:19;51.40;;;18.97;;
7432;SDS011;32233;49.500;7.764;2024-01-15T06:06:46;50.37;;;18.93;;
7432;SDS011;32233;49.500;7.764;2024-01-15T06:09:12;49.70;;;18.67;;
7432;SDS011;32233;49.500;7.764;2024-01-15T06:11:39;50.10;;;18.47;;
7432;SDS011;32233;49.500;7.764;2024-01-15T06:14:05;53.70;;;19.43;;
7432;SDS011;32233;49.500;7.764;2024-01-15T06:16:32;52.70;;;19.77;;
7432;SDS011;32233;49.500;7.764;2024-01-15T06:18:59;50.50;;;19.27;;
7432;SDS011;32233;49.500;7.764;2024-01-15T06:21:25;51.27;;;18.10;;
7432;SDS011;32233;49.500;7.764;2024-01-15T06:23:52;50.27;;;19.10;;
7432;SDS011;32233;49.500;7.764;2024-01-15T06:26:18;50.73;;;18.20;;
7432;SDS011;32233;49.500;7.764;2024-01-15T06:28:45;44.67;;;17.40;;
7432;SDS011;32233;49.500;7.764;2024-01-15T06:31:12;48.27;;;19.07;;
7432;SDS011;32233;49.500;7.764;2024-01-15T06:33:39;42.30;;;17.20;;
7432;SDS011;32233;49.500;7.764;2024-01-15T06:36:06;51.93;;;17.93;;
7432;SDS011;32233;49.500;7.764;2024-01-15T06:38:33;53.10;;;18.40;;
7432;SDS011;32233;49.500;7.764;2024-01-15T06:41:00;51.63;;;19.37;;
7432;SDS011;32233;49.500;7.764;2024-01-15T06:43:27;49.43;;;17.87;;
7432;SDS011;32233;49.500;7.764;2024-01-15T06:45:53;48.17;;;18.70;;
7432;SDS011;32233;49.500;7.764;2024-01-15T06:48:20;47.77;;;18.93;;
7432;SDS011;32233;49.500;7.764;2024-01-15T06:50:47;47.97;;;21.40;;
7432;SDS011;32233;49.500;7.764;2024-01-15T06:53:13;44.83;;;18.27;;
7432;SDS011;32233;49.500;7.764;2024-01-15T06:55:40;43.97;;;18.17;;
7432;SDS011;32233;49.500;7.764;2024-01-15T06:58:06;47.77;;;18.57;;
7432;SDS011;32233;49.500;7.764;2024-01-15T07:00:33;51.97;;;18.30;;
7432;SDS011;32233;49.500;7.764;2024-01-15T07:03:00;45.53;;;18.40;;
7432;SDS011;32233;49.500;7.764;2024-01-15T07:05:26;49.17;;;19.70;;
7432;SDS011;32233;49.500;7.764;2024-01-15T07:07:53;49.63;;;19.67;;
7432;SDS011;32233;49.500;7.764;2024-01-15T07:10:19;50.87;;;18.43;;
7432;SDS011;32233;49.500;7.764;2024-01-15T07:12:46;44.23;;;18.90;;
7432;SDS011;32233;49.500;7.764;2024-01-15T07:15:13;48.10;;;18.67;;
7432;SDS011;32233;49.500;7.764;2024-01-15T07:17:39;47.03;;;18.53;;
7432;SDS011;32233;49.500;7.764;2024-01-15T07:20:06;48.87;;;19.93;;
7432;SDS011;32233;49.500;7.764;2024-01-15T07:22:36;47.77;;;18.53;;
7432;SDS011;32233;49.500;7.764;2024-01-15T07:25:03;48.03;;;19.10;;
7432;SDS011;32233;49.500;7.764;2024-01-15T07:27:31;47.77;;;19.37;;
7432;SDS011;32233;49.500;7.764;2024-01-15T07:29:58;53.87;;;19.70;;
7432;SDS011;32233;49.500;7.764;2024-01-15T07:32:28;51.23;;;19.00;;
7432;SDS011;32233;49.500;7.764;2024-01-15T07:34:55;43.73;;;18.27;;
7432;SDS011;32233;49.500;7.764;2024-01-15T07:37:22;48.30;;;18.97;;
7432;SDS011;32233;49.500;7.764;2024-01-15T07:39:49;46.60;;;17.80;;
7432;SDS011;32233;49.500;7.764;2024-01-15T07:42:16;50.50;;;19.50;;
7432;SDS011;32233;49.500;7.764;2024-01-15T07:44:42;43.33;;;17.57;;
7432;SDS011;32233;49.500;7.764;2024-01-15T07:47:09;48.10;;;18.73;;
7432;SDS011;32233;49.500;7.764;2024-01-15T07:49:35;43.73;;;18.60;;
7432;SDS011;32233;49.500;7.764;2024-01-15T07:52:02;46.97;;;18.87;;
7432;SDS011;32233;49.500;7.764;2024-01-15T07:54:31;44.23;;;18.53;;
7432;SDS011;32233;49.500;7.764;2024-01-15T07:57:02;48.27;;;19.03;;
7432;SDS011;32233;49.500;7.764;2024-01-15T07:59:31;43.20;;;18.70;;
7432;SDS011;32233;49.500;7.764;2024-01-15T08:01:58;43.70;;;17.87;;
7432;SDS011;32233;49.500;7.764;2024-01-15T08:04:26;51.00;;;19.27;;
7432;SDS011;32233;49.500;7.764;2024-01-15T08:06:52;53.70;;;22.20;;
7432;SDS011;32233;49.500;7.764;2024-01-15T08:09:19;48.73;;;20.60;;
7432;SDS011;32233;49.500;7.764;2024-01-15T08:11:46;44.53;;;18.73;;
7432;SDS011;32233;49.500;7.764;2024-01-15T08:14:13;46.83;;;19.23;;
7432;SDS011;32233;49.500;7.764;2024-01-15T08:16:39;50.83;;;20.43;;
7432;SDS011;32233;49.500;7.764;2024-01-15T08:19:06;47.93;;;18.70;;
7432;SDS011;32233;49.500;7.764;2024-01-15T08:21:33;48.93;;;21.20;;
7432;SDS011;32233;49.500;7.764;2024-01-15T08:24:01;47.33;;;19.77;;
7432;SDS011;32233;49.500;7.764;2024-01-15T08:26:29;49.67;;;20.13;;
7432;SDS011;32233;49.500;7.764;2024-01-15T08:28:56;42.00;;;17.67;;
7432;SDS011;32233;49.500;7.764;2024-01-15T08:31:22;55.63;;;24.10;;
7432;SDS011;32233;49.500;7.764;2024-01-15T08:33:49;46.17;;;19.07;;
7432;SDS011;32233;49.500;7.764;2024-01-15T08:36:17;51.40;;;20.40;;
7432;SDS011;32233;49.500;7.764;2024-01-15T08:38:44;41.80;;;17.33;;
7432;SDS011;32233;49.500;7.764;2024-01-15T08:41:11;41.47;;;17.23;;
7432;SDS011;32233;49.500;7.764;2024-01-15T08:43:37;48.97;;;20.47;;
7432;SDS011;32233;49.500;7.764;2024-01-15T08:46:04;54.07;;;21.53;;
7432;SDS011;32233;49.500;7.764;2024-01-15T08:48:31;56.47;;;25.77;;
7432;SDS011;32233;49.500;7.764;2024-01-15T08:50:57;53.93;;;23.20;;
7432;SDS011;32233;49.500;7.764;2024-01-15T08:53:24;52.00;;;20.67;;
7432;SDS011;32233;49.500;7.764;2024-01-15T08:55:51;57.73;;;24.17;;
7432;SDS011;32233;49.500;7.764;2024-01-15T08:58:17;58.40;;;25.10;;
7432;SDS011;32233;49.500;7.764;2024-01-15T09:00:44;45.90;;;19.10;;
7432;SDS011;32233;49.500;7.764;2024-01-15T09:03:11;43.63;;;19.53;;
7432;SDS011;32233;49.500;7.764;2024-01-15T09:05:38;55.30;;;23.03;;
7432;SDS011;32233;49.500;7.764;2024-01-15T09:08:05;89.03;;;37.27;;
7432;SDS011;32233;49.500;7.764;2024-01-15T09:10:31;51.80;;;21.00;;
7432;SDS011;32233;49.500;7.764;2024-01-15T09:12:58;53.90;;;22.53;;
7432;SDS011;32233;49.500;7.764;2024-01-15T09:15:26;51.87;;;19.60;;
7432;SDS011;32233;49.500;7.764;2024-01-15T09:17:54;49.13;;;21.27;;
7432;SDS011;32233;49.500;7.764;2024-01-15T09:20:21;82.60;;;42.80;;
7432;SDS011;32233;49.500;7.764;2024-01-15T09:22:47;47.30;;;21.03;;
7432;SDS011;32233;49.500;7.764;2024-01-15T09:25:14;43.83;;;19.13;;
7432;SDS011;32233;49.500;7.764;2024-01-15T09:27:40;46.07;;;18.73;;
7432;SDS011;32233;49.500;7.764;2024-01-15T09:30:07;42.90;;;18.17;;
7432;SDS011;32233;49.500;7.764;2024-01-15T09:32:35;50.63;;;20.03;;
7432;SDS011;32233;49.500;7.764;2024-01-15T09:35:01;43.57;;;18.63;;
7432;SDS011;32233;49.500;7.764;2024-01-15T09:37:28;47.37;;;18.77;;
7432;SDS011;32233;49.500;7.764;2024-01-15T09:40:12;40.57;;;16.30;;
7432;SDS011;32233;49.500;7.764;2024-01-15T09:42:41;38.43;;;16.83;;
7432;SDS011;32233;49.500;7.764;2024-01-15T09:45:09;43.30;;;18.40;;
7432;SDS011;32233;49.500;7.764;2024-01-15T09:47:36;43.43;;;19.07;;
7432;SDS011;32233;49.500;7.764;2024-01-15T09:50:08;39.33;;;16.67;;
7432;SDS011;32233;49.500;7.764;2024-01-15T09:52:35;41.87;;;18.33;;
7432;SDS011;32233;49.500;7.764;2024-01-15T09:55:03;37.07;;;17.47;;
7432;SDS011;32233;49.500;7.764;2024-01-15T09:57:31;40.83;;;17.17;;
7432;SDS011;32233;49.500;7.764;2024-01-15T09:59:59;40.73;;;17.40;;
7432;SDS011;32233;49.500;7.764;2024-01-15T10:02:30;38.67;;;16.60;;
7432;SDS011;32233;49.500;7.764;2024-01-15T10:04:58;39.23;;;16.67;;
7432;SDS011;32233;49.500;7.764;2024-01-15T10:07:25;37.00;;;17.03;;
7432;SDS011;32233;49.500;7.764;2024-01-15T10:09:52;38.33;;;15.90;;
7432;SDS011;32233;49.500;7.764;2024-01-15T10:12:19;34.53;;;15.80;;
7432;SDS011;32233;49.500;7.764;2024-01-15T10:14:50;41.47;;;18.73;;
7432;SDS011;32233;49.500;7.764;2024-01-15T10:17:17;36.90;;;15.63;;
7432;SDS011;32233;49.500;7.764;2024-01-15T10:19:47;37.57;;;15.30;;
7432;SDS011;32233;49.500;7.764;2024-01-15T10:22:16;34.70;;;14.97;;
7432;SDS011;32233;49.500;7.764;2024-01-15T10:24:44;34.67;;;15.37;;
7432;SDS011;32233;49.500;7.764;2024-01-15T10:27:14;37.17;;;14.87;;
7432;SDS011;32233;49.500;7.764;2024-01-15T10:29:41;37.00;;;16.40;;
7432;SDS011;32233;49.500;7.764;2024-01-15T10:32:08;35.97;;;15.33;;
7432;SDS011;32233;49.500;7.764;2024-01-15T10:34:39;37.40;;;16.57;;
7432;SDS011;32233;49.500;7.764;2024-01-15T10:37:08;38.70;;;15.43;;
7432;SDS011;32233;49.500;7.764;2024-01-15T10:39:35;35.23;;;15.77;;
7432;SDS011;32233;49.500;7.764;2024-01-15T10:42:03;35.17;;;15.40;;
7432;SDS011;32233;49.500;7.764;2024-01-15T10:44:30;34.50;;;15.37;;
7432;SDS011;32233;49.500;7.764;2024-01-15T10:46:56;36.93;;;16.73;;
7432;SDS011;32233;49.500;7.764;2024-01-15T10:49:23;35.43;;;16.77;;
7432;SDS011;32233;49.500;7.764;2024-01-15T10:51:58;32.83;;;15.57;;
7432;SDS011;32233;49.500;7.764;2024-01-15T10:54:25;37.17;;;16.70;;
7432;SDS011;32233;49.500;7.764;2024-01-15T10:56:54;42.40;;;17.63;;
7432;SDS011;32233;49.500;7.764;2024-01-15T10:59:22;34.20;;;16.37;;
7432;SDS011;32233;49.500;7.764;2024-01-15T11:01:50;36.00;;;16.30;;
7432;SDS011;32233;49.500;7.764;2024-01-15T11:04:21;38.87;;;17.50;;
7432;SDS011;32233;49.500;7.764;2024-01-15T11:06:51;42.47;;;18.13;;
7432;SDS011;32233;49.500;7.764;2024-01-15T11:09:21;34.67;;;14.67;;
7432;SDS011;32233;49.500;7.764;2024-01-15T11:11:50;37.07;;;15.93;;
7432;SDS011;32233;49.500;7.764;2024-01-15T11:15:01;34.70;;;16.10;;
7432;SDS011;32233;49.500;7.764;2024-01-15T11:17:12;36.50;;;16.13;;
7432;SDS011;32233;49.500;7.764;2024-01-15T11:19:48;33.77;;;15.10;;
7432;SDS011;32233;49.500;7.764;2024-01-15T11:25:02;34.30;;;15.00;;
7432;SDS011;32233;49.500;7.764;2024-01-15T11:30:14;40.63;;;17.83;;
7432;SDS011;32233;49.500;7.764;2024-01-15T11:32:41;33.63;;;16.00;;
7432;SDS011;32233;49.500;7.764;2024-01-15T11:35:08;36.27;;;16.20;;
7432;SDS011;32233;49.500;7.764;2024-01-15T11:40:18;35.63;;;16.40;;
7432;SDS011;32233;49.500;7.764;2024-01-15T11:42:45;38.13;;;16.67;;
7432;SDS011;32233;49.500;7.764;2024-01-15T11:45:15;36.13;;;16.67;;
7432;SDS011;32233;49.500;7.764;2024-01-15T11:50:21;38.53;;;16.63;;
7432;SDS011;32233;49.500;7.764;2024-01-15T11:52:55;36.90;;;16.57;;
7432;SDS011;32233;49.500;7.764;2024-01-15T11:55:35;38.70;;;16.27;;
7432;SDS011;32233;49.500;7.764;2024-01-15T11:58:08;33.87;;;16.03;;
7432;SDS011;32233;49.500;7.764;2024-01-15T12:00:42;39.53;;;16.37;;
7432;SDS011;32233;49.500;7.764;2024-01-15T12:03:09;35.07;;;15.97;;
7432;SDS011;32233;49.500;7.764;2024-01-15T12:05:36;34.57;;;15.50;;
7432;SDS011;32233;49.500;7.764;2024-01-15T12:08:04;29.57;;;13.93;;
7432;SDS011;32233;49.500;7.764;2024-01-15T12:10:38;31.57;;;16.03;;
7432;SDS011;32233;49.500;7.764;2024-01-15T12:13:09;31.77;;;14.80;;
7432;SDS011;32233;49.500;7.764;2024-01-15T12:15:36;31.80;;;15.80;;
7432;SDS011;32233;49.500;7.764;2024-01-15T12:18:03;28.93;;;13.83;;
7432;SDS011;32233;49.500;7.764;2024-01-15T12:20:30;28.83;;;13.13;;
7432;SDS011;32233;49.500;7.764;2024-01-15T12:22:58;27.83;;;12.90;;
7432;SDS011;32233;49.500;7.764;2024-01-15T12:25:30;29.53;;;12.90;;
7432;SDS011;32233;49.500;7.764;2024-01-15T12:27:57;28.73;;;12.93;;
7432;SDS011;32233;49.500;7.764;2024-01-15T12:30:25;27.47;;;13.13;;
7432;SDS011;32233;49.500;7.764;2024-01-15T12:32:52;26.70;;;14.50;;
7432;SDS011;32233;49.500;7.764;2024-01-15T12:35:19;26.67;;;13.70;;
7432;SDS011;32233;49.500;7.764;2024-01-15T12:37:46;23.87;;;12.67;;
7432;SDS011;32233;49.500;7.764;2024-01-15T12:40:18;30.13;;;14.30;;
7432;SDS011;32233;49.500;7.764;2024-01-15T12:42:45;27.60;;;13.57;;
7432;SDS011;32233;49.500;7.764;2024-01-15T12:45:12;23.57;;;13.77;;
7432;SDS011;32233;49.500;7.764;2024-01-15T12:47:40;26.63;;;13.03;;
7432;SDS011;32233;49.500;7.764;2024-01-15T12:50:08;26.53;;;12.73;;
7432;SDS011;32233;49.500;7.764;2024-01-15T12:52:45;26.80;;;14.60;;
7432;SDS011;32233;49.500;7.764;2024-01-15T12:55:11;27.90;;;13.57;;
7432;SDS011;32233;49.500;7.764;2024-01-15T12:57:38;21.33;;;11.20;;
7432;SDS011;32233;49.500;7.764;2024-01-15T13:00:05;20.33;;;11.17;;
7432;SDS011;32233;49.500;7.764;2024-01-15T13:02:34;25.40;;;11.57;;
7432;SDS011;32233;49.500;7.764;2024-01-15T13:05:00;21.03;;;11.50;;
7432;SDS011;32233;49.500;7.764;2024-01-15T13:07:27;23.60;;;11.80;;
7432;SDS011;32233;49.500;7.764;2024-01-15T13:09:54;21.03;;;11.30;;
7432;SDS011;32233;49.500;7.764;2024-01-15T13:12:21;22.17;;;11.43;;
7432;SDS011;32233;49.500;7.764;2024-01-15T13:14:48;21.87;;;11.30;;
7432;SDS011;32233;49.500;7.764;2024-01-15T13:17:15;24.27;;;12.07;;
7432;SDS011;32233;49.500;7.764;2024-01-15T13:19:42;24.17;;;12.33;;
7432;SDS011;32233;49.500;7.764;2024-01-15T13:22:09;18.90;;;10.67;;
7432;SDS011;32233;49.500;7.764;2024-01-15T13:24:36;23.60;;;12.47;;
7432;SDS011;32233;49.500;7.764;2024-01-15T13:27:02;22.47;;;12.00;;
7432;SDS011;32233;49.500;7.764;2024-01-15T13:29:31;24.03;;;12.63;;
7432;SDS011;32233;49.500;7.764;2024-01-15T13:31:58;22.53;;;11.93;;
7432;SDS011;32233;49.500;7.764;2024-01-15T13:34:24;23.90;;;11.63;;
7432;SDS011;32233;49.500;7.764;2024-01-15T13:36:51;22.30;;;11.63;;
7432;SDS011;32233;49.500;7.764;2024-01-15T13:39:20;22.00;;;12.10;;
7432;SDS011;32233;49.500;7.764;2024-01-15T13:41:47;19.83;;;11.73;;
7432;SDS011;32233;49.500;7.764;2024-01-15T13:44:13;19.57;;;11.43;;
7432;SDS011;32233;49.500;7.764;2024-01-15T13:46:40;21.10;;;11.27;;
7432;SDS011;32233;49.500;7.764;2024-01-15T13:49:06;21.67;;;11.30;;
7432;SDS011;32233;49.500;7.764;2024-01-15T13:51:35;21.97;;;11.37;;
7432;SDS011;32233;49.500;7.764;2024-01-15T13:54:03;18.50;;;10.43;;
7432;SDS011;32233;49.500;7.764;2024-01-15T13:56:32;19.73;;;11.03;;
7432;SDS011;32233;49.500;7.764;2024-01-15T13:58:59;22.87;;;11.47;;
7432;SDS011;32233;49.500;7.764;2024-01-15T14:01:26;18.67;;;11.33;;
7432;SDS011;32233;49.500;7.764;2024-01-15T14:03:53;19.73;;;10.30;;
7432;SDS011;32233;49.500;7.764;2024-01-15T14:06:20;22.50;;;11.37;;
7432;SDS011;32233;49.500;7.764;2024-01-15T14:08:47;20.07;;;10.30;;
7432;SDS011;32233;49.500;7.764;2024-01-15T14:11:14;20.13;;;10.53;;
7432;SDS011;32233;49.500;7.764;2024-01-15T14:13:40;20.37;;;10.47;;
7432;SDS011;32233;49.500;7.764;2024-01-15T14:16:07;16.40;;;9.70;;
7432;SDS011;32233;49.500;7.764;2024-01-15T14:18:33;16.93;;;9.63;;
7432;SDS011;32233;49.500;7.764;2024-01-15T14:21:00;16.40;;;9.50;;
7432;SDS011;32233;49.500;7.764;2024-01-15T14:23:27;17.57;;;9.90;;
7432;SDS011;32233;49.500;7.764;2024-01-15T14:25:53;17.57;;;8.77;;
7432;SDS011;32233;49.500;7.764;2024-01-15T14:28:20;16.33;;;9.10;;
7432;SDS011;32233;49.500;7.764;2024-01-15T14:30:47;16.90;;;9.67;;
7432;SDS011;32233;49.500;7.764;2024-01-15T14:33:14;17.70;;;8.70;;
7432;SDS011;32233;49.500;7.764;2024-01-15T14:35:40;20.73;;;9.27;;
7432;SDS011;32233;49.500;7.764;2024-01-15T14:38:07;16.13;;;9.03;;
7432;SDS011;32233;49.500;7.764;2024-01-15T14:40:34;18.93;;;9.97;;
7432;SDS011;32233;49.500;7.764;2024-01-15T14:43:02;16.13;;;9.00;;
7432;SDS011;32233;49.500;7.764;2024-01-15T14:45:29;18.50;;;9.97;;
7432;SDS011;32233;49.500;7.764;2024-01-15T14:47:56;18.97;;;9.20;;